EWG8LA LEPA-LOWS
Flight info
| Callsign | EWG8LA |
|---|---|
| Flight time | 1h 41m |
| Altitude | 36000 |
| Route | ISTER DCT NIVDA DCT OMEDA DCT RAPUR/N0361F200 DCT TORTU DCT ERTEV DCT MALUG/N0435F370 DCT RASTA RASTA2R |
| Aircraft | A320/M-SDE3FGHIRWY/LB1 |
Departure
| Time | 2026-05-03 20:15 |
|---|---|
| Airport | Palma de Mallorca Airport (LEPA) |
Arrival
| Time | 2026-05-03 21:56 |
|---|---|
| Airport | Salzburg Airport (LOWS) |
| Time | Latitude | Longitude | Altitude | Speed | Heading |
|---|---|---|---|---|---|
| 2026-05-03 20:15 | 39.38913 | 2.68861 | 10865 ft | 366 kts | 85° |
| 2026-05-03 20:15 | 39.39179 | 2.72124 | 11484 ft | 373 kts | 85° |
| 2026-05-03 20:15 | 39.39460 | 2.75480 | 12174 ft | 377 kts | 85° |
| 2026-05-03 20:15 | 39.39729 | 2.78873 | 12873 ft | 381 kts | 85° |
| 2026-05-03 20:16 | 39.39978 | 2.82304 | 13576 ft | 385 kts | 86° |
| 2026-05-03 20:16 | 39.40215 | 2.85784 | 14190 ft | 390 kts | 86° |
| 2026-05-03 20:16 | 39.40442 | 2.89286 | 14812 ft | 393 kts | 86° |
| 2026-05-03 20:16 | 39.40668 | 2.92822 | 15441 ft | 396 kts | 86° |
| 2026-05-03 20:17 | 39.40895 | 2.96395 | 16062 ft | 399 kts | 86° |
| 2026-05-03 20:17 | 39.41117 | 2.99940 | 16671 ft | 401 kts | 86° |
| 2026-05-03 20:17 | 39.41344 | 3.03551 | 17276 ft | 405 kts | 86° |
| 2026-05-03 20:17 | 39.41573 | 3.07192 | 17883 ft | 407 kts | 86° |
| 2026-05-03 20:18 | 39.41805 | 3.10857 | 18486 ft | 409 kts | 86° |
| 2026-05-03 20:18 | 39.42038 | 3.14555 | 19020 ft | 412 kts | 86° |
| 2026-05-03 20:18 | 39.42268 | 3.18223 | 19537 ft | 415 kts | 86° |
| 2026-05-03 20:18 | 39.42532 | 3.21949 | 20076 ft | 418 kts | 82° |
| 2026-05-03 20:19 | 39.43192 | 3.25646 | 20582 ft | 422 kts | 71° |
| 2026-05-03 20:19 | 39.44349 | 3.29146 | 21098 ft | 425 kts | 60° |
| 2026-05-03 20:19 | 39.45864 | 3.32452 | 21613 ft | 427 kts | 58° |
| 2026-05-03 20:19 | 39.47398 | 3.35766 | 22128 ft | 430 kts | 58° |
| 2026-05-03 20:20 | 39.48916 | 3.39068 | 22623 ft | 433 kts | 58° |
| 2026-05-03 20:20 | 39.50461 | 3.42440 | 23114 ft | 436 kts | 58° |
| 2026-05-03 20:20 | 39.52024 | 3.45849 | 23608 ft | 439 kts | 58° |
| 2026-05-03 20:20 | 39.53591 | 3.49265 | 24003 ft | 442 kts | 59° |
| 2026-05-03 20:21 | 39.55167 | 3.52708 | 24391 ft | 445 kts | 59° |
| 2026-05-03 20:21 | 39.56731 | 3.56126 | 24764 ft | 447 kts | 59° |
| 2026-05-03 20:21 | 39.58322 | 3.59606 | 25127 ft | 450 kts | 59° |
| 2026-05-03 20:21 | 39.59922 | 3.63115 | 25494 ft | 452 kts | 59° |
| 2026-05-03 20:22 | 39.61523 | 3.66633 | 25840 ft | 455 kts | 59° |
| 2026-05-03 20:22 | 39.63140 | 3.70187 | 26187 ft | 457 kts | 59° |
| 2026-05-03 20:22 | 39.64759 | 3.73749 | 26531 ft | 460 kts | 59° |
| 2026-05-03 20:22 | 39.66369 | 3.77294 | 26865 ft | 462 kts | 59° |
| 2026-05-03 20:23 | 39.68004 | 3.80893 | 27198 ft | 464 kts | 59° |
| 2026-05-03 20:23 | 39.69646 | 3.84511 | 27544 ft | 466 kts | 59° |
| 2026-05-03 20:23 | 39.71295 | 3.88155 | 27882 ft | 468 kts | 59° |
| 2026-05-03 20:23 | 39.72948 | 3.91813 | 28202 ft | 471 kts | 59° |
| 2026-05-03 20:24 | 39.74614 | 3.95496 | 28542 ft | 472 kts | 59° |
| 2026-05-03 20:24 | 39.76282 | 3.99188 | 28878 ft | 474 kts | 59° |
| 2026-05-03 20:24 | 39.77951 | 4.02886 | 29184 ft | 476 kts | 59° |
| 2026-05-03 20:24 | 39.79627 | 4.06613 | 29467 ft | 478 kts | 59° |
| 2026-05-03 20:25 | 39.81285 | 4.10307 | 29748 ft | 480 kts | 59° |
| 2026-05-03 20:25 | 39.82974 | 4.14072 | 30031 ft | 482 kts | 59° |
| 2026-05-03 20:25 | 39.84669 | 4.17855 | 30267 ft | 484 kts | 59° |
| 2026-05-03 20:25 | 39.86367 | 4.21645 | 30503 ft | 485 kts | 59° |
| 2026-05-03 20:26 | 39.88071 | 4.25448 | 30752 ft | 486 kts | 59° |
| 2026-05-03 20:26 | 39.89782 | 4.29260 | 30957 ft | 488 kts | 59° |
| 2026-05-03 20:26 | 39.91500 | 4.33088 | 31163 ft | 490 kts | 59° |
| 2026-05-03 20:26 | 39.93218 | 4.36920 | 31437 ft | 489 kts | 59° |
| 2026-05-03 20:27 | 39.94935 | 4.40755 | 31733 ft | 489 kts | 59° |
| 2026-05-03 20:27 | 39.96627 | 4.44538 | 32067 ft | 487 kts | 59° |
| 2026-05-03 20:27 | 39.98330 | 4.48355 | 32378 ft | 486 kts | 59° |
| 2026-05-03 20:27 | 40.00031 | 4.52173 | 32660 ft | 485 kts | 59° |
| 2026-05-03 20:28 | 40.01155 | 4.54697 | 32843 ft | 485 kts | 59° |
| 2026-05-03 20:28 | 40.02853 | 4.58519 | 33111 ft | 485 kts | 59° |
| 2026-05-03 20:28 | 40.04542 | 4.62328 | 33419 ft | 484 kts | 59° |
| 2026-05-03 20:28 | 40.06270 | 4.66098 | 33712 ft | 483 kts | 54° |
| 2026-05-03 20:29 | 40.08282 | 4.69535 | 33986 ft | 481 kts | 49° |
| 2026-05-03 20:29 | 40.10433 | 4.72897 | 34227 ft | 481 kts | 49° |
| 2026-05-03 20:29 | 40.12579 | 4.76254 | 34458 ft | 481 kts | 48° |
| 2026-05-03 20:29 | 40.14723 | 4.79614 | 34682 ft | 481 kts | 48° |
| 2026-05-03 20:30 | 40.16861 | 4.82971 | 34933 ft | 480 kts | 49° |
| 2026-05-03 20:30 | 40.18998 | 4.86332 | 35164 ft | 480 kts | 49° |
| 2026-05-03 20:30 | 40.21108 | 4.89652 | 35372 ft | 480 kts | 49° |
| 2026-05-03 20:30 | 40.23235 | 4.93009 | 35565 ft | 480 kts | 49° |
| 2026-05-03 20:31 | 40.25366 | 4.96378 | 35755 ft | 480 kts | 49° |
| 2026-05-03 20:31 | 40.27497 | 4.99753 | 35951 ft | 480 kts | 49° |
| 2026-05-03 20:31 | 40.29627 | 5.03129 | 36039 ft | 479 kts | 49° |
| 2026-05-03 20:32 | 40.33844 | 5.09815 | 36042 ft | 477 kts | 49° |
| 2026-05-03 20:32 | 40.38073 | 5.16531 | 36040 ft | 477 kts | 49° |
| 2026-05-03 20:33 | 40.42291 | 5.23246 | 36044 ft | 476 kts | 49° |
| 2026-05-03 20:33 | 40.46517 | 5.29977 | 36047 ft | 476 kts | 49° |
| 2026-05-03 20:34 | 40.50728 | 5.36718 | 36039 ft | 476 kts | 50° |
| 2026-05-03 20:34 | 40.54909 | 5.43412 | 36042 ft | 476 kts | 50° |
| 2026-05-03 20:35 | 40.59118 | 5.50175 | 36049 ft | 477 kts | 50° |
| 2026-05-03 20:35 | 40.63326 | 5.56940 | 36055 ft | 477 kts | 50° |
| 2026-05-03 20:36 | 40.67503 | 5.63675 | 36059 ft | 477 kts | 50° |
| 2026-05-03 20:36 | 40.71709 | 5.70474 | 36061 ft | 477 kts | 50° |
| 2026-05-03 20:37 | 40.75879 | 5.77229 | 36060 ft | 477 kts | 50° |
| 2026-05-03 20:37 | 40.80075 | 5.84051 | 36074 ft | 477 kts | 50° |
| 2026-05-03 20:38 | 40.84240 | 5.90826 | 36078 ft | 478 kts | 50° |
| 2026-05-03 20:38 | 40.88434 | 5.97657 | 36075 ft | 478 kts | 50° |
| 2026-05-03 20:39 | 40.92592 | 6.04463 | 36074 ft | 478 kts | 50° |
| 2026-05-03 20:39 | 40.96772 | 6.11314 | 36068 ft | 478 kts | 50° |
| 2026-05-03 20:40 | 41.00953 | 6.18177 | 36086 ft | 477 kts | 51° |
| 2026-05-03 20:40 | 41.05103 | 6.25002 | 36090 ft | 477 kts | 51° |
| 2026-05-03 20:41 | 41.09275 | 6.31879 | 36089 ft | 477 kts | 51° |
| 2026-05-03 20:41 | 41.13414 | 6.38721 | 36091 ft | 477 kts | 51° |
| 2026-05-03 20:42 | 41.17573 | 6.45609 | 36104 ft | 477 kts | 51° |
| 2026-05-03 20:42 | 41.21717 | 6.52488 | 36095 ft | 476 kts | 51° |
| 2026-05-03 20:43 | 41.26311 | 6.58715 | 36101 ft | 473 kts | 35° |
| 2026-05-03 20:43 | 41.31649 | 6.63821 | 36099 ft | 472 kts | 34° |
| 2026-05-03 20:44 | 41.36964 | 6.68894 | 36115 ft | 472 kts | 34° |
| 2026-05-03 20:44 | 41.42308 | 6.74007 | 36115 ft | 472 kts | 34° |
| 2026-05-03 20:45 | 41.47651 | 6.79121 | 36105 ft | 472 kts | 34° |
| 2026-05-03 20:45 | 41.52985 | 6.84246 | 36098 ft | 472 kts | 34° |
| 2026-05-03 20:46 | 41.58285 | 6.89341 | 36117 ft | 471 kts | 34° |
| 2026-05-03 20:46 | 41.63599 | 6.94475 | 36113 ft | 470 kts | 34° |
| 2026-05-03 20:47 | 41.68915 | 6.99616 | 36119 ft | 470 kts | 34° |
| 2026-05-03 20:47 | 41.74188 | 7.04711 | 36115 ft | 470 kts | 34° |
| 2026-05-03 20:48 | 41.79489 | 7.09862 | 36118 ft | 469 kts | 34° |
| 2026-05-03 20:48 | 41.84747 | 7.14984 | 36116 ft | 469 kts | 34° |
| 2026-05-03 20:49 | 41.90034 | 7.20141 | 36111 ft | 469 kts | 34° |
| 2026-05-03 20:49 | 41.95328 | 7.25307 | 36108 ft | 469 kts | 34° |
| 2026-05-03 20:50 | 42.00589 | 7.30445 | 36125 ft | 469 kts | 34° |
| 2026-05-03 20:50 | 42.05868 | 7.35624 | 36123 ft | 469 kts | 34° |
| 2026-05-03 20:51 | 42.11142 | 7.40814 | 36120 ft | 469 kts | 34° |
| 2026-05-03 20:51 | 42.16386 | 7.45980 | 36122 ft | 469 kts | 34° |
| 2026-05-03 20:52 | 42.21659 | 7.51192 | 36129 ft | 469 kts | 34° |
| 2026-05-03 20:52 | 42.26895 | 7.56369 | 36126 ft | 468 kts | 34° |
| 2026-05-03 20:53 | 42.32157 | 7.61583 | 36123 ft | 468 kts | 34° |
| 2026-05-03 20:53 | 42.37408 | 7.66794 | 36140 ft | 468 kts | 34° |
| 2026-05-03 20:54 | 42.42628 | 7.71983 | 36135 ft | 468 kts | 34° |
| 2026-05-03 20:54 | 42.50488 | 7.79837 | 36130 ft | 468 kts | 34° |
| 2026-05-03 20:55 | 42.55733 | 7.85071 | 36128 ft | 467 kts | 34° |
| 2026-05-03 20:55 | 42.60937 | 7.90294 | 36129 ft | 467 kts | 34° |
| 2026-05-03 20:56 | 42.66174 | 7.95571 | 36129 ft | 468 kts | 35° |
| 2026-05-03 20:56 | 42.71377 | 8.00807 | 36120 ft | 467 kts | 34° |
| 2026-05-03 20:57 | 42.76606 | 8.06077 | 36135 ft | 467 kts | 34° |
| 2026-05-03 20:57 | 42.81812 | 8.11335 | 36128 ft | 468 kts | 34° |
| 2026-05-03 20:58 | 42.87035 | 8.16639 | 36123 ft | 468 kts | 34° |
| 2026-05-03 20:58 | 42.92267 | 8.21950 | 36119 ft | 468 kts | 34° |
| 2026-05-03 20:59 | 42.97458 | 8.27233 | 36128 ft | 468 kts | 34° |
| 2026-05-03 20:59 | 43.02690 | 8.32578 | 36125 ft | 468 kts | 34° |
| 2026-05-03 21:00 | 43.07037 | 8.37015 | 36121 ft | 468 kts | 34° |
| 2026-05-03 21:00 | 43.13133 | 8.43256 | 36142 ft | 468 kts | 34° |
| 2026-05-03 21:01 | 43.18326 | 8.48585 | 36141 ft | 468 kts | 34° |
| 2026-05-03 21:01 | 43.23515 | 8.53924 | 36138 ft | 468 kts | 34° |
| 2026-05-03 21:02 | 43.28723 | 8.59307 | 36137 ft | 468 kts | 34° |
| 2026-05-03 21:02 | 43.33929 | 8.64681 | 36142 ft | 468 kts | 34° |
| 2026-05-03 21:03 | 43.39117 | 8.70050 | 36141 ft | 468 kts | 34° |
| 2026-05-03 21:03 | 43.44326 | 8.75466 | 36143 ft | 467 kts | 34° |
| 2026-05-03 21:04 | 43.49482 | 8.80833 | 36158 ft | 467 kts | 34° |
| 2026-05-03 21:04 | 43.54664 | 8.86238 | 36154 ft | 466 kts | 34° |
| 2026-05-03 21:05 | 43.59841 | 8.91645 | 36149 ft | 466 kts | 34° |
| 2026-05-03 21:05 | 43.65001 | 8.97070 | 36145 ft | 466 kts | 35° |
| 2026-05-03 21:06 | 43.70065 | 9.02616 | 36150 ft | 466 kts | 36° |
| 2026-05-03 21:06 | 43.75114 | 9.08275 | 36150 ft | 466 kts | 36° |
| 2026-05-03 21:07 | 43.80158 | 9.13921 | 36151 ft | 465 kts | 36° |
| 2026-05-03 21:07 | 43.85173 | 9.19507 | 36154 ft | 464 kts | 36° |
| 2026-05-03 21:08 | 43.90217 | 9.25133 | 36163 ft | 464 kts | 36° |
| 2026-05-03 21:08 | 43.95229 | 9.30738 | 36156 ft | 464 kts | 36° |
| 2026-05-03 21:09 | 44.00266 | 9.36371 | 36154 ft | 464 kts | 36° |
| 2026-05-03 21:09 | 44.05265 | 9.41985 | 36166 ft | 464 kts | 36° |
| 2026-05-03 21:10 | 44.10286 | 9.47649 | 36156 ft | 464 kts | 36° |
| 2026-05-03 21:10 | 44.15301 | 9.53310 | 36161 ft | 464 kts | 36° |
| 2026-05-03 21:11 | 44.20314 | 9.58975 | 36167 ft | 463 kts | 36° |
| 2026-05-03 21:11 | 44.25298 | 9.64624 | 36171 ft | 463 kts | 36° |
| 2026-05-03 21:12 | 44.30307 | 9.70326 | 36166 ft | 463 kts | 36° |
| 2026-05-03 21:12 | 44.35282 | 9.76003 | 36165 ft | 463 kts | 36° |
| 2026-05-03 21:13 | 44.40284 | 9.81707 | 36167 ft | 463 kts | 36° |
| 2026-05-03 21:13 | 44.45260 | 9.87370 | 36161 ft | 463 kts | 36° |
| 2026-05-03 21:14 | 44.50248 | 9.93076 | 36158 ft | 462 kts | 36° |
| 2026-05-03 21:14 | 44.55226 | 9.98808 | 36152 ft | 462 kts | 36° |
| 2026-05-03 21:15 | 44.60202 | 10.04545 | 36136 ft | 462 kts | 36° |
| 2026-05-03 21:15 | 44.65148 | 10.10243 | 36111 ft | 462 kts | 36° |
| 2026-05-03 21:16 | 44.70107 | 10.15981 | 36101 ft | 462 kts | 36° |
| 2026-05-03 21:16 | 44.75068 | 10.21734 | 36104 ft | 462 kts | 36° |
| 2026-05-03 21:17 | 44.79190 | 10.26533 | 36098 ft | 462 kts | 36° |
| 2026-05-03 21:17 | 44.84965 | 10.33256 | 36117 ft | 461 kts | 36° |
| 2026-05-03 21:18 | 44.89068 | 10.38048 | 36125 ft | 460 kts | 36° |
| 2026-05-03 21:18 | 44.94800 | 10.44755 | 36149 ft | 459 kts | 36° |
| 2026-05-03 21:19 | 44.98889 | 10.49553 | 36136 ft | 459 kts | 36° |
| 2026-05-03 21:19 | 45.03799 | 10.55330 | 36133 ft | 458 kts | 36° |
| 2026-05-03 21:20 | 45.08701 | 10.61103 | 36123 ft | 458 kts | 36° |
| 2026-05-03 21:20 | 45.13591 | 10.66869 | 36121 ft | 457 kts | 36° |
| 2026-05-03 21:21 | 45.18449 | 10.72611 | 36118 ft | 457 kts | 36° |
| 2026-05-03 21:21 | 45.23329 | 10.78412 | 36096 ft | 457 kts | 36° |
| 2026-05-03 21:22 | 45.28206 | 10.84216 | 36102 ft | 456 kts | 36° |
| 2026-05-03 21:22 | 45.33051 | 10.89979 | 36091 ft | 456 kts | 36° |
| 2026-05-03 21:23 | 45.37911 | 10.95785 | 36095 ft | 455 kts | 37° |
| 2026-05-03 21:23 | 45.42771 | 11.01604 | 36097 ft | 455 kts | 37° |
| 2026-05-03 21:24 | 45.47591 | 11.07385 | 36102 ft | 455 kts | 37° |
| 2026-05-03 21:24 | 45.52444 | 11.13213 | 36097 ft | 455 kts | 37° |
| 2026-05-03 21:25 | 45.57255 | 11.19018 | 36106 ft | 455 kts | 37° |
| 2026-05-03 21:25 | 45.62086 | 11.24862 | 36132 ft | 454 kts | 37° |
| 2026-05-03 21:26 | 45.66922 | 11.30722 | 36109 ft | 455 kts | 37° |
| 2026-05-03 21:26 | 45.71721 | 11.36554 | 36123 ft | 455 kts | 37° |
| 2026-05-03 21:27 | 45.76530 | 11.42401 | 36144 ft | 455 kts | 37° |
| 2026-05-03 21:27 | 45.81361 | 11.48292 | 36142 ft | 456 kts | 37° |
| 2026-05-03 21:28 | 45.86202 | 11.54201 | 36162 ft | 456 kts | 37° |
| 2026-05-03 21:28 | 45.90993 | 11.60075 | 36145 ft | 456 kts | 37° |
| 2026-05-03 21:29 | 45.95815 | 11.66010 | 36150 ft | 455 kts | 37° |
| 2026-05-03 21:29 | 46.00608 | 11.71914 | 36142 ft | 455 kts | 38° |
| 2026-05-03 21:30 | 46.05419 | 11.77853 | 36140 ft | 455 kts | 38° |
| 2026-05-03 21:30 | 46.10241 | 11.83809 | 36131 ft | 455 kts | 38° |
| 2026-05-03 21:31 | 46.15019 | 11.89739 | 36128 ft | 455 kts | 38° |
| 2026-05-03 21:31 | 46.19825 | 11.95719 | 36123 ft | 455 kts | 38° |
| 2026-05-03 21:32 | 46.24588 | 12.01657 | 36120 ft | 455 kts | 38° |
| 2026-05-03 21:32 | 46.29386 | 12.07647 | 36120 ft | 455 kts | 38° |
| 2026-05-03 21:33 | 46.34164 | 12.13631 | 36142 ft | 453 kts | 38° |
| 2026-05-03 21:33 | 46.38931 | 12.19608 | 36141 ft | 451 kts | 38° |
| 2026-05-03 21:34 | 46.43638 | 12.25523 | 36160 ft | 451 kts | 38° |
| 2026-05-03 21:34 | 46.48373 | 12.31500 | 36167 ft | 450 kts | 38° |
| 2026-05-03 21:35 | 46.53100 | 12.37472 | 36179 ft | 450 kts | 39° |
| 2026-05-03 21:35 | 46.57799 | 12.43423 | 36174 ft | 450 kts | 39° |
| 2026-05-03 21:36 | 46.62513 | 12.49425 | 35528 ft | 453 kts | 39° |
| 2026-05-03 21:36 | 46.64899 | 12.52466 | 34823 ft | 454 kts | 39° |
| 2026-05-03 21:36 | 46.67261 | 12.55479 | 34296 ft | 450 kts | 39° |
| 2026-05-03 21:37 | 46.69607 | 12.58469 | 33700 ft | 447 kts | 39° |
| 2026-05-03 21:37 | 46.72075 | 12.61179 | 33149 ft | 441 kts | 32° |
| 2026-05-03 21:37 | 46.74614 | 12.63643 | 32601 ft | 437 kts | 32° |
| 2026-05-03 21:37 | 46.77137 | 12.66100 | 32051 ft | 434 kts | 32° |
| 2026-05-03 21:38 | 46.79639 | 12.68546 | 31507 ft | 431 kts | 32° |
| 2026-05-03 21:38 | 46.82126 | 12.70983 | 30969 ft | 429 kts | 32° |
| 2026-05-03 21:38 | 46.84593 | 12.73409 | 30433 ft | 426 kts | 32° |
| 2026-05-03 21:38 | 46.87042 | 12.75822 | 29873 ft | 423 kts | 32° |
| 2026-05-03 21:39 | 46.89475 | 12.78221 | 29365 ft | 419 kts | 32° |
| 2026-05-03 21:39 | 46.91883 | 12.80593 | 28852 ft | 415 kts | 32° |
| 2026-05-03 21:39 | 46.94267 | 12.82941 | 28360 ft | 411 kts | 32° |
| 2026-05-03 21:39 | 46.96601 | 12.85240 | 27899 ft | 407 kts | 33° |
| 2026-05-03 21:40 | 46.98940 | 12.87549 | 27415 ft | 403 kts | 33° |
| 2026-05-03 21:40 | 47.01258 | 12.89843 | 26954 ft | 401 kts | 33° |
| 2026-05-03 21:40 | 47.03561 | 12.92121 | 26503 ft | 398 kts | 33° |
| 2026-05-03 21:40 | 47.05851 | 12.94385 | 26053 ft | 396 kts | 33° |
| 2026-05-03 21:41 | 47.08128 | 12.96641 | 25572 ft | 393 kts | 33° |
| 2026-05-03 21:41 | 47.10385 | 12.98880 | 25125 ft | 391 kts | 33° |
| 2026-05-03 21:41 | 47.12639 | 13.01122 | 24653 ft | 390 kts | 33° |
| 2026-05-03 21:41 | 47.14886 | 13.03360 | 24172 ft | 389 kts | 33° |
| 2026-05-03 21:42 | 47.17098 | 13.05567 | 23693 ft | 388 kts | 33° |
| 2026-05-03 21:42 | 47.19337 | 13.07802 | 23142 ft | 387 kts | 33° |
| 2026-05-03 21:42 | 47.21564 | 13.10025 | 22664 ft | 385 kts | 33° |
| 2026-05-03 21:42 | 47.23776 | 13.12231 | 22145 ft | 384 kts | 33° |
| 2026-05-03 21:43 | 47.25986 | 13.14439 | 21662 ft | 382 kts | 33° |
| 2026-05-03 21:43 | 47.28188 | 13.16642 | 21174 ft | 381 kts | 33° |
| 2026-05-03 21:43 | 47.30371 | 13.18831 | 20682 ft | 379 kts | 34° |
| 2026-05-03 21:43 | 47.32524 | 13.20990 | 20211 ft | 378 kts | 34° |
| 2026-05-03 21:44 | 47.34811 | 13.22891 | 19717 ft | 376 kts | 18° |
| 2026-05-03 21:44 | 47.37359 | 13.23708 | 19220 ft | 374 kts | 6° |
| 2026-05-03 21:44 | 47.39943 | 13.24169 | 18736 ft | 374 kts | 5° |
| 2026-05-03 21:44 | 47.42500 | 13.24587 | 18266 ft | 373 kts | 2° |
| 2026-05-03 21:45 | 47.45094 | 13.24582 | 17738 ft | 372 kts | 355° |
| 2026-05-03 21:45 | 47.47671 | 13.24379 | 17275 ft | 369 kts | 355° |
| 2026-05-03 21:45 | 47.49989 | 13.24174 | 16873 ft | 368 kts | 355° |
| 2026-05-03 21:45 | 47.52536 | 13.23943 | 16435 ft | 366 kts | 355° |
| 2026-05-03 21:46 | 47.55038 | 13.23709 | 16001 ft | 364 kts | 355° |
| 2026-05-03 21:46 | 47.57573 | 13.23461 | 15552 ft | 364 kts | 355° |
| 2026-05-03 21:46 | 47.60095 | 13.23138 | 15104 ft | 362 kts | 349° |
| 2026-05-03 21:46 | 47.62511 | 13.22145 | 14670 ft | 359 kts | 340° |
| 2026-05-03 21:47 | 47.64870 | 13.20984 | 14202 ft | 352 kts | 340° |
| 2026-05-03 21:47 | 47.67136 | 13.19854 | 13752 ft | 343 kts | 340° |
| 2026-05-03 21:47 | 47.69374 | 13.18737 | 13226 ft | 335 kts | 340° |
| 2026-05-03 21:47 | 47.71563 | 13.17646 | 12707 ft | 328 kts | 340° |
| 2026-05-03 21:48 | 47.73717 | 13.16571 | 12197 ft | 326 kts | 340° |
| 2026-05-03 21:48 | 47.75880 | 13.15493 | 11681 ft | 329 kts | 340° |
| 2026-05-03 21:48 | 47.78055 | 13.14388 | 11057 ft | 332 kts | 340° |
| 2026-05-03 21:48 | 47.80255 | 13.13257 | 10480 ft | 336 kts | 340° |
| 2026-05-03 21:49 | 47.82472 | 13.12111 | 9896 ft | 338 kts | 340° |
| 2026-05-03 21:49 | 47.84694 | 13.10963 | 9300 ft | 335 kts | 340° |
| 2026-05-03 21:49 | 47.86829 | 13.09854 | 8736 ft | 321 kts | 339° |
| 2026-05-03 21:49 | 47.88908 | 13.08794 | 8170 ft | 309 kts | 339° |
| 2026-05-03 21:50 | 47.90912 | 13.07780 | 7602 ft | 299 kts | 340° |
| 2026-05-03 21:50 | 47.92852 | 13.06753 | 7036 ft | 290 kts | 335° |
| 2026-05-03 21:50 | 47.94627 | 13.05413 | 6494 ft | 282 kts | 330° |
| 2026-05-03 21:50 | 47.96291 | 13.04038 | 6004 ft | 272 kts | 330° |
| 2026-05-03 21:51 | 47.97915 | 13.02686 | 5563 ft | 262 kts | 330° |
| 2026-05-03 21:51 | 47.99497 | 13.01362 | 5212 ft | 258 kts | 329° |
| 2026-05-03 21:51 | 48.00845 | 12.99752 | 5150 ft | 241 kts | 304° |
| 2026-05-03 21:51 | 48.01428 | 12.97481 | 5110 ft | 235 kts | 273° |
| 2026-05-03 21:52 | 48.01107 | 12.95116 | 5080 ft | 235 kts | 241° |
| 2026-05-03 21:52 | 48.00022 | 12.93300 | 5066 ft | 237 kts | 218° |
| 2026-05-03 21:52 | 47.98693 | 12.91876 | 5040 ft | 239 kts | 215° |
| 2026-05-03 21:52 | 47.97189 | 12.90728 | 4783 ft | 241 kts | 196° |
| 2026-05-03 21:53 | 47.95564 | 12.90472 | 4538 ft | 237 kts | 175° |
| 2026-05-03 21:53 | 47.93978 | 12.91095 | 4255 ft | 236 kts | 158° |
| 2026-05-03 21:53 | 47.92466 | 12.92060 | 3940 ft | 236 kts | 158° |
| 2026-05-03 21:53 | 47.90967 | 12.93020 | 3643 ft | 232 kts | 159° |
| 2026-05-03 21:54 | 47.89520 | 12.93941 | 3352 ft | 221 kts | 160° |
| 2026-05-03 21:54 | 47.88152 | 12.94811 | 3094 ft | 208 kts | 160° |
| 2026-05-03 21:54 | 47.86862 | 12.95629 | 2789 ft | 194 kts | 160° |
| 2026-05-03 21:54 | 47.85693 | 12.96372 | 2562 ft | 172 kts | 161° |
| 2026-05-03 21:55 | 47.84641 | 12.97038 | 2357 ft | 158 kts | 161° |
| 2026-05-03 21:55 | 47.83657 | 12.97660 | 2156 ft | 149 kts | 159° |
| 2026-05-03 21:55 | 47.82718 | 12.98253 | 1974 ft | 145 kts | 159° |
| 2026-05-03 21:55 | 47.81803 | 12.98832 | 1783 ft | 142 kts | 159° |
| 2026-05-03 21:56 | 47.80899 | 12.99409 | 1588 ft | 141 kts | 158° |
| 2026-05-03 21:56 | 47.80001 | 12.99982 | 1435 ft | 139 kts | 160° |
| 2026-05-03 21:56 | 47.79283 | 13.00425 | 1422 ft | 71 kts | 157° |
| 2026-05-03 21:56 | 47.78982 | 13.00611 | 1422 ft | 41 kts | 158° |
| 2026-05-03 21:57 | 47.78746 | 13.00762 | 1421 ft | 27 kts | 157° |
| 2026-05-03 21:57 | 47.78628 | 13.00833 | 1421 ft | 11 kts | 158° |
| 2026-05-03 21:57 | 47.78582 | 13.00845 | 1419 ft | 6 kts | 191° |
| 2026-05-03 21:57 | 47.78558 | 13.00814 | 1422 ft | 4 kts | 237° |
| 2026-05-03 21:58 | 47.78542 | 13.00763 | 1420 ft | 6 kts | 247° |
| 2026-05-03 21:58 | 47.78527 | 13.00692 | 1421 ft | 8 kts | 264° |
| 2026-05-03 21:58 | 47.78555 | 13.00619 | 1422 ft | 9 kts | 328° |
| 2026-05-03 21:58 | 47.78608 | 13.00585 | 1422 ft | 9 kts | 338° |
| 2026-05-03 21:59 | 47.78678 | 13.00542 | 1421 ft | 13 kts | 337° |
| 2026-05-03 21:59 | 47.78773 | 13.00482 | 1420 ft | 16 kts | 336° |
| 2026-05-03 21:59 | 47.78875 | 13.00418 | 1419 ft | 13 kts | 337° |
| 2026-05-03 21:59 | 47.78937 | 13.00373 | 1420 ft | 7 kts | 320° |
| 2026-05-03 22:00 | 47.78953 | 13.00314 | 1422 ft | 9 kts | 278° |
| 2026-05-03 22:00 | 47.78957 | 13.00212 | 1422 ft | 8 kts | 272° |
| 2026-05-03 22:00 | 47.78970 | 13.00151 | 1422 ft | 6 kts | 309° |
| 2026-05-03 22:00 | 47.78998 | 13.00126 | 1422 ft | 5 kts | 336° |
| 2026-05-03 22:01 | 47.79055 | 13.00091 | 1422 ft | 12 kts | 337° |
| 2026-05-03 22:01 | 47.79137 | 13.00040 | 1422 ft | 13 kts | 336° |
| 2026-05-03 22:01 | 47.79198 | 13.00000 | 1422 ft | 6 kts | 336° |
| 2026-05-03 22:01 | 47.79226 | 12.99982 | 1422 ft | 4 kts | 329° |
| 2026-05-03 22:02 | 47.79238 | 12.99957 | 1422 ft | 3 kts | 298° |
| 2026-05-03 22:02 | 47.79244 | 12.99928 | 1422 ft | 3 kts | 284° |
| 2026-05-03 22:02 | 47.79248 | 12.99897 | 1422 ft | 3 kts | 282° |
| 2026-05-03 22:02 | 47.79252 | 12.99873 | 1422 ft | 2 kts | 282° |
| 2026-05-03 22:03 | 47.79253 | 12.99867 | 1422 ft | 0 kts | 282° |